sensor_id;sensor_type;location;lat;lon;timestamp;temperature;humidity
40952;DHT22;26682;51.660;19.338;2023-05-27T00:01:12;10.40;99.90
40952;DHT22;26682;51.660;19.338;2023-05-27T00:03:55;10.30;99.90
40952;DHT22;26682;51.660;19.338;2023-05-27T00:06:38;10.20;99.90
40952;DHT22;26682;51.660;19.338;2023-05-27T00:09:20;10.20;99.90
40952;DHT22;26682;51.660;19.338;2023-05-27T00:12:04;10.20;99.90
40952;DHT22;26682;51.660;19.338;2023-05-27T00:14:46;10.10;99.90
40952;DHT22;26682;51.660;19.338;2023-05-27T00:17:29;10.10;99.90
40952;DHT22;26682;51.660;19.338;2023-05-27T00:20:12;10.10;99.90
40952;DHT22;26682;51.660;19.338;2023-05-27T00:22:55;10.00;99.90
40952;DHT22;26682;51.660;19.338;2023-05-27T00:25:38;10.00;99.90
40952;DHT22;26682;51.660;19.338;2023-05-27T00:28:21;9.90;99.90
40952;DHT22;26682;51.660;19.338;2023-05-27T00:31:04;9.90;99.90
40952;DHT22;26682;51.660;19.338;2023-05-27T00:33:46;9.80;99.90
40952;DHT22;26682;51.660;19.338;2023-05-27T00:36:29;9.70;99.90
40952;DHT22;26682;51.660;19.338;2023-05-27T00:39:14;9.70;99.90
40952;DHT22;26682;51.660;19.338;2023-05-27T00:41:56;9.60;99.90
40952;DHT22;26682;51.660;19.338;2023-05-27T00:44:40;9.60;99.90
40952;DHT22;26682;51.660;19.338;2023-05-27T00:47:23;9.60;99.90
40952;DHT22;26682;51.660;19.338;2023-05-27T00:50:08;9.50;99.90
40952;DHT22;26682;51.660;19.338;2023-05-27T00:52:51;9.50;99.90
40952;DHT22;26682;51.660;19.338;2023-05-27T00:55:37;9.40;99.90
40952;DHT22;26682;51.660;19.338;2023-05-27T00:58:20;9.40;99.90
40952;DHT22;26682;51.660;19.338;2023-05-27T01:01:04;9.40;99.90
40952;DHT22;26682;51.660;19.338;2023-05-27T01:03:46;9.40;99.90
40952;DHT22;26682;51.660;19.338;2023-05-27T01:06:42;9.30;99.90
40952;DHT22;26682;51.660;19.338;2023-05-27T01:09:39;9.30;99.90
40952;DHT22;26682;51.660;19.338;2023-05-27T01:12:47;9.20;99.90
40952;DHT22;26682;51.660;19.338;2023-05-27T01:15:31;9.20;99.90
40952;DHT22;26682;51.660;19.338;2023-05-27T01:18:16;9.10;99.90
40952;DHT22;26682;51.660;19.338;2023-05-27T01:21:03;9.10;99.90
40952;DHT22;26682;51.660;19.338;2023-05-27T01:23:48;9.00;99.90
40952;DHT22;26682;51.660;19.338;2023-05-27T01:26:31;9.00;99.90
40952;DHT22;26682;51.660;19.338;2023-05-27T01:29:14;8.90;99.90
40952;DHT22;26682;51.660;19.338;2023-05-27T01:37:37;8.90;99.90
40952;DHT22;26682;51.660;19.338;2023-05-27T01:40:20;8.90;99.90
40952;DHT22;26682;51.660;19.338;2023-05-27T01:43:03;8.80;99.90
40952;DHT22;26682;51.660;19.338;2023-05-27T01:45:47;8.80;99.90
40952;DHT22;26682;51.660;19.338;2023-05-27T01:48:30;8.70;99.90
40952;DHT22;26682;51.660;19.338;2023-05-27T01:51:13;8.70;99.90
40952;DHT22;26682;51.660;19.338;2023-05-27T01:53:55;8.70;99.90
40952;DHT22;26682;51.660;19.338;2023-05-27T01:56:38;8.70;99.90
40952;DHT22;26682;51.660;19.338;2023-05-27T01:59:21;8.70;99.90
40952;DHT22;26682;51.660;19.338;2023-05-27T02:02:04;8.60;99.90
40952;DHT22;26682;51.660;19.338;2023-05-27T02:04:47;8.60;99.90
40952;DHT22;26682;51.660;19.338;2023-05-27T02:07:29;8.60;99.90
40952;DHT22;26682;51.660;19.338;2023-05-27T02:10:12;8.50;99.90
40952;DHT22;26682;51.660;19.338;2023-05-27T02:12:55;8.50;99.90
40952;DHT22;26682;51.660;19.338;2023-05-27T02:15:37;8.50;99.90
40952;DHT22;26682;51.660;19.338;2023-05-27T02:18:20;8.40;99.90
40952;DHT22;26682;51.660;19.338;2023-05-27T02:21:04;8.40;99.90
40952;DHT22;26682;51.660;19.338;2023-05-27T02:23:48;8.30;99.90
40952;DHT22;26682;51.660;19.338;2023-05-27T02:26:31;8.30;99.90
40952;DHT22;26682;51.660;19.338;2023-05-27T02:29:17;8.20;99.90
40952;DHT22;26682;51.660;19.338;2023-05-27T02:31:59;8.20;99.90
40952;DHT22;26682;51.660;19.338;2023-05-27T02:34:41;8.10;99.90
40952;DHT22;26682;51.660;19.338;2023-05-27T02:37:25;8.10;99.90
40952;DHT22;26682;51.660;19.338;2023-05-27T02:40:10;8.10;99.90
40952;DHT22;26682;51.660;19.338;2023-05-27T02:42:52;8.10;99.90
40952;DHT22;26682;51.660;19.338;2023-05-27T02:45:35;8.10;99.90
40952;DHT22;26682;51.660;19.338;2023-05-27T02:48:17;8.10;99.90
40952;DHT22;26682;51.660;19.338;2023-05-27T02:51:00;8.10;99.90
40952;DHT22;26682;51.660;19.338;2023-05-27T02:53:42;8.00;99.90
40952;DHT22;26682;51.660;19.338;2023-05-27T02:56:26;8.10;99.90
40952;DHT22;26682;51.660;19.338;2023-05-27T02:59:09;8.00;99.90
40952;DHT22;26682;51.660;19.338;2023-05-27T03:01:52;8.10;99.90
40952;DHT22;26682;51.660;19.338;2023-05-27T03:04:35;8.10;99.90
40952;DHT22;26682;51.660;19.338;2023-05-27T03:07:17;8.10;99.90
40952;DHT22;26682;51.660;19.338;2023-05-27T03:10:00;8.20;99.90
40952;DHT22;26682;51.660;19.338;2023-05-27T03:12:42;8.30;99.90
40952;DHT22;26682;51.660;19.338;2023-05-27T03:15:25;8.30;99.90
40952;DHT22;26682;51.660;19.338;2023-05-27T03:18:07;8.30;99.90
40952;DHT22;26682;51.660;19.338;2023-05-27T03:20:50;8.30;99.90
40952;DHT22;26682;51.660;19.338;2023-05-27T03:23:33;8.30;99.90
40952;DHT22;26682;51.660;19.338;2023-05-27T03:26:16;8.30;99.90
40952;DHT22;26682;51.660;19.338;2023-05-27T03:28:59;8.30;99.90
40952;DHT22;26682;51.660;19.338;2023-05-27T03:31:42;8.30;99.90
40952;DHT22;26682;51.660;19.338;2023-05-27T03:34:28;8.40;99.90
40952;DHT22;26682;51.660;19.338;2023-05-27T03:37:12;8.40;99.90
40952;DHT22;26682;51.660;19.338;2023-05-27T03:40:13;8.50;99.90
40952;DHT22;26682;51.660;19.338;2023-05-27T03:42:56;8.60;99.90
40952;DHT22;26682;51.660;19.338;2023-05-27T03:45:38;8.60;99.90
40952;DHT22;26682;51.660;19.338;2023-05-27T03:48:21;8.70;99.90
40952;DHT22;26682;51.660;19.338;2023-05-27T03:51:04;8.80;99.90
40952;DHT22;26682;51.660;19.338;2023-05-27T03:53:47;8.90;99.90
40952;DHT22;26682;51.660;19.338;2023-05-27T03:56:30;9.00;99.90
40952;DHT22;26682;51.660;19.338;2023-05-27T03:59:12;9.00;99.90
40952;DHT22;26682;51.660;19.338;2023-05-27T04:01:57;9.00;99.90
40952;DHT22;26682;51.660;19.338;2023-05-27T04:04:39;9.10;99.90
40952;DHT22;26682;51.660;19.338;2023-05-27T04:07:22;9.30;99.90
40952;DHT22;26682;51.660;19.338;2023-05-27T04:10:09;9.30;99.90
40952;DHT22;26682;51.660;19.338;2023-05-27T04:12:51;9.40;99.90
40952;DHT22;26682;51.660;19.338;2023-05-27T04:15:34;9.50;99.90
40952;DHT22;26682;51.660;19.338;2023-05-27T04:18:17;9.70;99.90
40952;DHT22;26682;51.660;19.338;2023-05-27T04:20:59;9.90;99.90
40952;DHT22;26682;51.660;19.338;2023-05-27T04:23:43;10.10;99.90
40952;DHT22;26682;51.660;19.338;2023-05-27T04:26:26;10.10;99.90
40952;DHT22;26682;51.660;19.338;2023-05-27T04:29:08;10.20;99.90
40952;DHT22;26682;51.660;19.338;2023-05-27T04:31:53;10.30;99.90
40952;DHT22;26682;51.660;19.338;2023-05-27T04:34:36;10.50;99.90
40952;DHT22;26682;51.660;19.338;2023-05-27T04:37:19;10.70;99.90
40952;DHT22;26682;51.660;19.338;2023-05-27T04:40:05;10.70;99.90
40952;DHT22;26682;51.660;19.338;2023-05-27T04:42:58;10.80;99.90
40952;DHT22;26682;51.660;19.338;2023-05-27T04:45:41;11.00;99.90
40952;DHT22;26682;51.660;19.338;2023-05-27T04:48:26;11.10;99.90
40952;DHT22;26682;51.660;19.338;2023-05-27T04:51:09;11.30;99.90
40952;DHT22;26682;51.660;19.338;2023-05-27T04:53:51;11.50;99.90
40952;DHT22;26682;51.660;19.338;2023-05-27T04:56:37;11.90;99.90
40952;DHT22;26682;51.660;19.338;2023-05-27T04:59:21;12.20;99.90
40952;DHT22;26682;51.660;19.338;2023-05-27T05:02:04;12.30;99.90
40952;DHT22;26682;51.660;19.338;2023-05-27T05:05:07;12.50;99.90
40952;DHT22;26682;51.660;19.338;2023-05-27T05:07:56;13.10;99.90
40952;DHT22;26682;51.660;19.338;2023-05-27T05:10:39;13.40;99.90
40952;DHT22;26682;51.660;19.338;2023-05-27T05:13:22;13.60;99.90
40952;DHT22;26682;51.660;19.338;2023-05-27T05:16:06;13.50;99.90
40952;DHT22;26682;51.660;19.338;2023-05-27T05:18:49;13.70;99.90
40952;DHT22;26682;51.660;19.338;2023-05-27T05:21:33;13.80;99.90
40952;DHT22;26682;51.660;19.338;2023-05-27T05:24:16;13.60;99.90
40952;DHT22;26682;51.660;19.338;2023-05-27T05:27:00;13.80;99.90
40952;DHT22;26682;51.660;19.338;2023-05-27T05:29:43;14.10;99.90
40952;DHT22;26682;51.660;19.338;2023-05-27T05:32:30;14.60;99.90
40952;DHT22;26682;51.660;19.338;2023-05-27T05:35:13;14.80;99.90
40952;DHT22;26682;51.660;19.338;2023-05-27T05:38:01;15.10;99.90
40952;DHT22;26682;51.660;19.338;2023-05-27T05:40:44;15.00;98.90
40952;DHT22;26682;51.660;19.338;2023-05-27T05:43:32;14.90;99.90
40952;DHT22;26682;51.660;19.338;2023-05-27T05:46:15;14.40;98.80
40952;DHT22;26682;51.660;19.338;2023-05-27T05:48:59;14.50;99.50
40952;DHT22;26682;51.660;19.338;2023-05-27T05:51:49;14.90;99.30
40952;DHT22;26682;51.660;19.338;2023-05-27T05:54:32;15.20;99.00
40952;DHT22;26682;51.660;19.338;2023-05-27T05:57:15;14.70;98.70
40952;DHT22;26682;51.660;19.338;2023-05-27T05:59:58;14.70;99.20
40952;DHT22;26682;51.660;19.338;2023-05-27T06:02:40;14.60;99.60
40952;DHT22;26682;51.660;19.338;2023-05-27T06:05:23;14.80;99.50
40952;DHT22;26682;51.660;19.338;2023-05-27T06:08:08;15.10;99.30
40952;DHT22;26682;51.660;19.338;2023-05-27T06:10:55;15.50;98.80
40952;DHT22;26682;51.660;19.338;2023-05-27T06:13:38;15.50;98.50
40952;DHT22;26682;51.660;19.338;2023-05-27T06:16:22;15.20;98.10
40952;DHT22;26682;51.660;19.338;2023-05-27T06:19:06;15.00;99.10
40952;DHT22;26682;51.660;19.338;2023-05-27T06:21:49;15.20;99.00
40952;DHT22;26682;51.660;19.338;2023-05-27T06:24:51;15.20;98.30
40952;DHT22;26682;51.660;19.338;2023-05-27T06:27:54;14.70;99.20
40952;DHT22;26682;51.660;19.338;2023-05-27T06:30:37;14.60;99.30
40952;DHT22;26682;51.660;19.338;2023-05-27T06:33:23;14.70;99.20
40952;DHT22;26682;51.660;19.338;2023-05-27T06:36:06;14.60;99.60
40952;DHT22;26682;51.660;19.338;2023-05-27T06:38:49;14.90;99.20
40952;DHT22;26682;51.660;19.338;2023-05-27T06:41:33;14.90;99.00
40952;DHT22;26682;51.660;19.338;2023-05-27T06:44:46;15.20;98.70
40952;DHT22;26682;51.660;19.338;2023-05-27T06:47:37;15.00;98.30
40952;DHT22;26682;51.660;19.338;2023-05-27T06:50:19;15.10;98.50
40952;DHT22;26682;51.660;19.338;2023-05-27T06:53:02;15.10;98.90
40952;DHT22;26682;51.660;19.338;2023-05-27T06:56:06;15.30;97.80
40952;DHT22;26682;51.660;19.338;2023-05-27T06:58:58;15.20;98.40
40952;DHT22;26682;51.660;19.338;2023-05-27T07:01:41;15.20;98.60
40952;DHT22;26682;51.660;19.338;2023-05-27T07:04:27;15.30;98.90
40952;DHT22;26682;51.660;19.338;2023-05-27T07:07:13;15.70;97.50
40952;DHT22;26682;51.660;19.338;2023-05-27T07:09:56;15.60;96.50
40952;DHT22;26682;51.660;19.338;2023-05-27T07:12:38;15.50;96.90
40952;DHT22;26682;51.660;19.338;2023-05-27T07:15:39;15.80;95.50
40952;DHT22;26682;51.660;19.338;2023-05-27T07:18:22;16.00;97.20
40952;DHT22;26682;51.660;19.338;2023-05-27T07:21:07;16.10;96.70
40952;DHT22;26682;51.660;19.338;2023-05-27T07:23:49;16.20;96.40
40952;DHT22;26682;51.660;19.338;2023-05-27T07:26:40;16.00;96.60
40952;DHT22;26682;51.660;19.338;2023-05-27T07:29:22;16.10;96.10
40952;DHT22;26682;51.660;19.338;2023-05-27T07:32:08;16.10;96.10
40952;DHT22;26682;51.660;19.338;2023-05-27T07:34:51;16.20;94.80
40952;DHT22;26682;51.660;19.338;2023-05-27T07:37:33;16.20;94.50
40952;DHT22;26682;51.660;19.338;2023-05-27T07:40:16;16.00;94.00
40952;DHT22;26682;51.660;19.338;2023-05-27T07:42:59;16.00;94.40
40952;DHT22;26682;51.660;19.338;2023-05-27T07:45:41;16.20;94.20
40952;DHT22;26682;51.660;19.338;2023-05-27T07:48:24;16.10;93.40
40952;DHT22;26682;51.660;19.338;2023-05-27T07:51:06;16.20;93.50
40952;DHT22;26682;51.660;19.338;2023-05-27T07:53:50;16.00;93.40
40952;DHT22;26682;51.660;19.338;2023-05-27T07:56:35;16.20;93.10
40952;DHT22;26682;51.660;19.338;2023-05-27T07:59:17;16.20;92.40
40952;DHT22;26682;51.660;19.338;2023-05-27T08:02:00;16.00;93.00
40952;DHT22;26682;51.660;19.338;2023-05-27T08:04:44;16.40;92.80
40952;DHT22;26682;51.660;19.338;2023-05-27T08:07:41;16.40;91.80
40952;DHT22;26682;51.660;19.338;2023-05-27T08:10:43;16.60;92.50
40952;DHT22;26682;51.660;19.338;2023-05-27T08:13:36;16.50;91.90
40952;DHT22;26682;51.660;19.338;2023-05-27T08:16:31;16.00;91.40
40952;DHT22;26682;51.660;19.338;2023-05-27T08:19:33;16.10;91.50
40952;DHT22;26682;51.660;19.338;2023-05-27T08:22:26;16.30;91.80
40952;DHT22;26682;51.660;19.338;2023-05-27T08:25:27;16.40;91.50
40952;DHT22;26682;51.660;19.338;2023-05-27T08:28:39;16.40;91.80
40952;DHT22;26682;51.660;19.338;2023-05-27T08:31:54;16.60;92.00
40952;DHT22;26682;51.660;19.338;2023-05-27T08:34:38;16.40;91.70
40952;DHT22;26682;51.660;19.338;2023-05-27T08:37:20;16.40;90.80
40952;DHT22;26682;51.660;19.338;2023-05-27T08:40:09;16.50;91.20
40952;DHT22;26682;51.660;19.338;2023-05-27T08:42:58;16.80;91.60
40952;DHT22;26682;51.660;19.338;2023-05-27T08:45:41;16.70;91.10
40952;DHT22;26682;51.660;19.338;2023-05-27T08:48:26;16.80;91.20
40952;DHT22;26682;51.660;19.338;2023-05-27T08:51:09;16.60;91.20
40952;DHT22;26682;51.660;19.338;2023-05-27T08:53:53;16.70;91.30
40952;DHT22;26682;51.660;19.338;2023-05-27T08:56:37;16.90;90.30
40952;DHT22;26682;51.660;19.338;2023-05-27T08:59:21;16.80;90.40
40952;DHT22;26682;51.660;19.338;2023-05-27T09:02:12;17.10;90.80
40952;DHT22;26682;51.660;19.338;2023-05-27T09:04:55;17.20;90.60
40952;DHT22;26682;51.660;19.338;2023-05-27T09:07:38;17.30;90.00
40952;DHT22;26682;51.660;19.338;2023-05-27T09:10:21;17.50;90.60
40952;DHT22;26682;51.660;19.338;2023-05-27T09:13:04;17.50;89.40
40952;DHT22;26682;51.660;19.338;2023-05-27T09:15:46;17.60;90.00
40952;DHT22;26682;51.660;19.338;2023-05-27T09:18:32;17.90;90.10
40952;DHT22;26682;51.660;19.338;2023-05-27T09:21:15;18.00;88.90
40952;DHT22;26682;51.660;19.338;2023-05-27T09:23:57;17.50;88.90
40952;DHT22;26682;51.660;19.338;2023-05-27T09:26:40;17.20;89.40
40952;DHT22;26682;51.660;19.338;2023-05-27T09:29:24;16.90;89.40
40952;DHT22;26682;51.660;19.338;2023-05-27T09:32:07;16.90;90.30
40952;DHT22;26682;51.660;19.338;2023-05-27T09:34:51;17.00;89.80
40952;DHT22;26682;51.660;19.338;2023-05-27T09:37:33;17.30;89.40
40952;DHT22;26682;51.660;19.338;2023-05-27T09:40:16;17.30;89.70
40952;DHT22;26682;51.660;19.338;2023-05-27T09:42:59;17.50;90.10
40952;DHT22;26682;51.660;19.338;2023-05-27T09:45:43;17.30;89.20
40952;DHT22;26682;51.660;19.338;2023-05-27T09:48:27;17.40;90.10
40952;DHT22;26682;51.660;19.338;2023-05-27T09:51:12;17.40;90.00
40952;DHT22;26682;51.660;19.338;2023-05-27T09:53:55;17.30;90.40
40952;DHT22;26682;51.660;19.338;2023-05-27T09:56:38;17.10;90.50
40952;DHT22;26682;51.660;19.338;2023-05-27T09:59:20;17.20;90.60
40952;DHT22;26682;51.660;19.338;2023-05-27T10:02:04;17.30;90.40
40952;DHT22;26682;51.660;19.338;2023-05-27T10:04:49;17.30;90.00
40952;DHT22;26682;51.660;19.338;2023-05-27T10:07:32;17.50;89.80
40952;DHT22;26682;51.660;19.338;2023-05-27T10:10:20;17.40;89.00
40952;DHT22;26682;51.660;19.338;2023-05-27T10:13:04;17.50;89.80
40952;DHT22;26682;51.660;19.338;2023-05-27T10:15:51;17.60;89.40
40952;DHT22;26682;51.660;19.338;2023-05-27T10:18:42;17.40;89.00
40952;DHT22;26682;51.660;19.338;2023-05-27T10:21:29;17.80;88.70
40952;DHT22;26682;51.660;19.338;2023-05-27T10:24:14;18.10;87.40
40952;DHT22;26682;51.660;19.338;2023-05-27T10:27:00;18.10;85.00
40952;DHT22;26682;51.660;19.338;2023-05-27T10:29:57;17.80;85.30
40952;DHT22;26682;51.660;19.338;2023-05-27T10:32:48;17.80;84.80
40952;DHT22;26682;51.660;19.338;2023-05-27T10:35:42;17.80;84.20
40952;DHT22;26682;51.660;19.338;2023-05-27T10:38:26;17.90;81.50
40952;DHT22;26682;51.660;19.338;2023-05-27T10:41:09;17.60;82.90
40952;DHT22;26682;51.660;19.338;2023-05-27T10:43:58;17.80;84.40
40952;DHT22;26682;51.660;19.338;2023-05-27T10:46:43;17.90;84.90
40952;DHT22;26682;51.660;19.338;2023-05-27T10:49:26;17.80;86.80
40952;DHT22;26682;51.660;19.338;2023-05-27T10:52:18;18.00;84.50
40952;DHT22;26682;51.660;19.338;2023-05-27T10:55:02;18.00;79.30
40952;DHT22;26682;51.660;19.338;2023-05-27T10:57:45;17.90;78.40
40952;DHT22;26682;51.660;19.338;2023-05-27T11:00:29;17.90;79.60
40952;DHT22;26682;51.660;19.338;2023-05-27T11:03:26;18.00;78.80
40952;DHT22;26682;51.660;19.338;2023-05-27T11:06:10;17.80;78.20
40952;DHT22;26682;51.660;19.338;2023-05-27T11:08:53;18.00;79.50
40952;DHT22;26682;51.660;19.338;2023-05-27T11:11:36;17.90;80.30
40952;DHT22;26682;51.660;19.338;2023-05-27T11:14:19;18.00;79.70
40952;DHT22;26682;51.660;19.338;2023-05-27T11:17:02;17.80;78.70
40952;DHT22;26682;51.660;19.338;2023-05-27T11:19:45;17.80;80.20
40952;DHT22;26682;51.660;19.338;2023-05-27T11:22:28;17.80;79.60
40952;DHT22;26682;51.660;19.338;2023-05-27T11:25:13;17.90;80.00
40952;DHT22;26682;51.660;19.338;2023-05-27T11:27:55;17.70;80.40
40952;DHT22;26682;51.660;19.338;2023-05-27T11:30:38;17.90;80.00
40952;DHT22;26682;51.660;19.338;2023-05-27T11:33:32;18.00;78.60
40952;DHT22;26682;51.660;19.338;2023-05-27T11:36:19;17.90;79.30
40952;DHT22;26682;51.660;19.338;2023-05-27T11:39:03;18.00;79.80
40952;DHT22;26682;51.660;19.338;2023-05-27T11:41:50;18.20;80.30
40952;DHT22;26682;51.660;19.338;2023-05-27T11:44:33;18.30;79.20
40952;DHT22;26682;51.660;19.338;2023-05-27T11:47:17;18.40;79.60
40952;DHT22;26682;51.660;19.338;2023-05-27T11:49:59;18.20;79.20
40952;DHT22;26682;51.660;19.338;2023-05-27T11:53:02;18.20;77.50
40952;DHT22;26682;51.660;19.338;2023-05-27T11:55:45;18.10;76.60
40952;DHT22;26682;51.660;19.338;2023-05-27T11:58:28;18.10;77.80
40952;DHT22;26682;51.660;19.338;2023-05-27T12:01:11;18.10;76.80
40952;DHT22;26682;51.660;19.338;2023-05-27T12:03:53;18.00;78.30
40952;DHT22;26682;51.660;19.338;2023-05-27T12:06:37;18.00;78.00
40952;DHT22;26682;51.660;19.338;2023-05-27T12:09:23;18.20;79.20
40952;DHT22;26682;51.660;19.338;2023-05-27T12:12:06;18.20;78.10
40952;DHT22;26682;51.660;19.338;2023-05-27T12:14:48;18.30;78.90
40952;DHT22;26682;51.660;19.338;2023-05-27T12:17:31;18.20;77.50
40952;DHT22;26682;51.660;19.338;2023-05-27T12:20:14;18.10;78.40
40952;DHT22;26682;51.660;19.338;2023-05-27T12:22:56;18.20;78.20
40952;DHT22;26682;51.660;19.338;2023-05-27T12:25:39;18.20;77.80
40952;DHT22;26682;51.660;19.338;2023-05-27T12:28:22;18.10;77.30
40952;DHT22;26682;51.660;19.338;2023-05-27T12:31:04;18.30;76.50
40952;DHT22;26682;51.660;19.338;2023-05-27T12:33:47;18.40;77.40
40952;DHT22;26682;51.660;19.338;2023-05-27T12:36:30;18.40;77.10
40952;DHT22;26682;51.660;19.338;2023-05-27T12:39:12;18.40;76.90
40952;DHT22;26682;51.660;19.338;2023-05-27T12:41:55;18.30;75.40
40952;DHT22;26682;51.660;19.338;2023-05-27T12:44:38;18.20;76.10
40952;DHT22;26682;51.660;19.338;2023-05-27T12:47:21;18.30;75.40
40952;DHT22;26682;51.660;19.338;2023-05-27T12:50:03;18.30;75.30
40952;DHT22;26682;51.660;19.338;2023-05-27T12:52:49;18.50;76.70
40952;DHT22;26682;51.660;19.338;2023-05-27T12:55:33;18.20;75.30
40952;DHT22;26682;51.660;19.338;2023-05-27T12:58:16;18.30;75.10
40952;DHT22;26682;51.660;19.338;2023-05-27T13:00:58;18.10;74.40
40952;DHT22;26682;51.660;19.338;2023-05-27T13:03:41;18.20;75.50
40952;DHT22;26682;51.660;19.338;2023-05-27T13:06:24;18.30;74.30
40952;DHT22;26682;51.660;19.338;2023-05-27T13:09:07;18.20;73.80
40952;DHT22;26682;51.660;19.338;2023-05-27T13:11:50;18.20;74.00
40952;DHT22;26682;51.660;19.338;2023-05-27T13:14:32;18.40;73.40
40952;DHT22;26682;51.660;19.338;2023-05-27T13:17:14;18.30;71.60
40952;DHT22;26682;51.660;19.338;2023-05-27T13:19:57;18.40;71.90
40952;DHT22;26682;51.660;19.338;2023-05-27T13:22:41;18.40;73.40
40952;DHT22;26682;51.660;19.338;2023-05-27T13:25:23;18.40;73.80
40952;DHT22;26682;51.660;19.338;2023-05-27T13:28:05;18.20;74.30
40952;DHT22;26682;51.660;19.338;2023-05-27T13:30:48;18.40;74.20
40952;DHT22;26682;51.660;19.338;2023-05-27T13:33:30;18.40;73.10
40952;DHT22;26682;51.660;19.338;2023-05-27T13:36:13;18.50;73.60
40952;DHT22;26682;51.660;19.338;2023-05-27T13:38:56;18.50;72.30
40952;DHT22;26682;51.660;19.338;2023-05-27T13:41:39;18.60;72.30
40952;DHT22;26682;51.660;19.338;2023-05-27T13:44:21;18.70;72.30
40952;DHT22;26682;51.660;19.338;2023-05-27T13:47:05;18.70;70.90
40952;DHT22;26682;51.660;19.338;2023-05-27T13:49:48;18.60;72.30
40952;DHT22;26682;51.660;19.338;2023-05-27T13:52:32;18.60;72.90
40952;DHT22;26682;51.660;19.338;2023-05-27T13:55:14;18.60;72.10
40952;DHT22;26682;51.660;19.338;2023-05-27T13:57:56;18.30;72.20
40952;DHT22;26682;51.660;19.338;2023-05-27T14:00:39;18.20;72.10
40952;DHT22;26682;51.660;19.338;2023-05-27T14:03:22;18.30;72.10
40952;DHT22;26682;51.660;19.338;2023-05-27T14:06:05;18.40;71.80
40952;DHT22;26682;51.660;19.338;2023-05-27T14:08:49;18.50;72.60
40952;DHT22;26682;51.660;19.338;2023-05-27T14:11:31;18.30;72.70
40952;DHT22;26682;51.660;19.338;2023-05-27T14:14:14;18.30;72.60
40952;DHT22;26682;51.660;19.338;2023-05-27T14:16:56;18.30;71.10
40952;DHT22;26682;51.660;19.338;2023-05-27T14:19:39;18.40;71.40
40952;DHT22;26682;51.660;19.338;2023-05-27T14:22:23;18.30;70.30
40952;DHT22;26682;51.660;19.338;2023-05-27T14:25:06;18.40;70.30
40952;DHT22;26682;51.660;19.338;2023-05-27T14:27:49;18.30;70.20
40952;DHT22;26682;51.660;19.338;2023-05-27T14:30:32;18.40;70.10
40952;DHT22;26682;51.660;19.338;2023-05-27T14:33:19;18.30;69.00
40952;DHT22;26682;51.660;19.338;2023-05-27T14:36:02;18.20;69.00
40952;DHT22;26682;51.660;19.338;2023-05-27T14:38:44;18.30;69.20
40952;DHT22;26682;51.660;19.338;2023-05-27T14:41:27;18.20;68.80
40952;DHT22;26682;51.660;19.338;2023-05-27T14:44:09;18.30;69.50
40952;DHT22;26682;51.660;19.338;2023-05-27T14:46:52;18.30;68.10
40952;DHT22;26682;51.660;19.338;2023-05-27T14:49:34;18.30;68.20
40952;DHT22;26682;51.660;19.338;2023-05-27T14:52:17;18.20;68.30
40952;DHT22;26682;51.660;19.338;2023-05-27T14:54:59;18.30;69.40
40952;DHT22;26682;51.660;19.338;2023-05-27T14:57:42;18.10;68.40
40952;DHT22;26682;51.660;19.338;2023-05-27T15:00:25;18.00;68.20
40952;DHT22;26682;51.660;19.338;2023-05-27T15:03:08;17.90;68.90
40952;DHT22;26682;51.660;19.338;2023-05-27T15:05:51;18.00;69.00
40952;DHT22;26682;51.660;19.338;2023-05-27T15:08:34;18.10;68.70
40952;DHT22;26682;51.660;19.338;2023-05-27T15:11:17;18.20;68.80
40952;DHT22;26682;51.660;19.338;2023-05-27T15:14:00;18.20;67.90
40952;DHT22;26682;51.660;19.338;2023-05-27T15:16:42;18.10;67.90
40952;DHT22;26682;51.660;19.338;2023-05-27T15:19:25;18.20;67.40
40952;DHT22;26682;51.660;19.338;2023-05-27T15:22:08;18.00;66.90
40952;DHT22;26682;51.660;19.338;2023-05-27T15:24:51;18.00;66.90
40952;DHT22;26682;51.660;19.338;2023-05-27T15:27:33;18.00;66.80
40952;DHT22;26682;51.660;19.338;2023-05-27T15:30:16;18.00;67.00
40952;DHT22;26682;51.660;19.338;2023-05-27T15:32:59;18.10;67.20
40952;DHT22;26682;51.660;19.338;2023-05-27T15:35:41;18.00;66.90
40952;DHT22;26682;51.660;19.338;2023-05-27T15:38:24;18.10;67.60
40952;DHT22;26682;51.660;19.338;2023-05-27T15:41:07;18.10;67.50
40952;DHT22;26682;51.660;19.338;2023-05-27T15:43:49;18.10;67.70
40952;DHT22;26682;51.660;19.338;2023-05-27T15:46:32;18.10;67.20
40952;DHT22;26682;51.660;19.338;2023-05-27T15:49:15;18.00;65.80
40952;DHT22;26682;51.660;19.338;2023-05-27T15:51:58;18.00;66.90
40952;DHT22;26682;51.660;19.338;2023-05-27T15:54:41;17.90;66.70
40952;DHT22;26682;51.660;19.338;2023-05-27T15:57:24;17.90;67.00
40952;DHT22;26682;51.660;19.338;2023-05-27T16:00:07;17.90;67.10
40952;DHT22;26682;51.660;19.338;2023-05-27T16:02:54;17.90;67.00
40952;DHT22;26682;51.660;19.338;2023-05-27T16:05:37;17.90;66.90
40952;DHT22;26682;51.660;19.338;2023-05-27T16:08:20;17.80;66.50
40952;DHT22;26682;51.660;19.338;2023-05-27T16:11:02;17.60;66.00
40952;DHT22;26682;51.660;19.338;2023-05-27T16:13:45;17.60;66.40
40952;DHT22;26682;51.660;19.338;2023-05-27T16:16:27;17.60;66.80
40952;DHT22;26682;51.660;19.338;2023-05-27T16:19:10;17.60;67.00
40952;DHT22;26682;51.660;19.338;2023-05-27T16:21:53;17.50;67.30
40952;DHT22;26682;51.660;19.338;2023-05-27T16:24:36;17.50;66.40
40952;DHT22;26682;51.660;19.338;2023-05-27T16:27:19;17.50;67.30
40952;DHT22;26682;51.660;19.338;2023-05-27T16:30:02;17.60;67.50
40952;DHT22;26682;51.660;19.338;2023-05-27T16:32:44;17.70;68.20
40952;DHT22;26682;51.660;19.338;2023-05-27T16:35:26;17.70;67.20
40952;DHT22;26682;51.660;19.338;2023-05-27T16:38:09;17.50;67.00
40952;DHT22;26682;51.660;19.338;2023-05-27T16:40:52;17.50;67.30
40952;DHT22;26682;51.660;19.338;2023-05-27T16:43:34;17.50;67.80
40952;DHT22;26682;51.660;19.338;2023-05-27T16:46:17;17.50;67.70
40952;DHT22;26682;51.660;19.338;2023-05-27T16:49:00;17.50;67.90
40952;DHT22;26682;51.660;19.338;2023-05-27T16:51:43;17.50;68.50
40952;DHT22;26682;51.660;19.338;2023-05-27T16:54:25;17.40;68.40
40952;DHT22;26682;51.660;19.338;2023-05-27T16:57:07;17.40;68.90
40952;DHT22;26682;51.660;19.338;2023-05-27T16:59:50;17.30;68.80
40952;DHT22;26682;51.660;19.338;2023-05-27T17:02:32;17.20;69.00
40952;DHT22;26682;51.660;19.338;2023-05-27T17:05:15;17.20;69.50
40952;DHT22;26682;51.660;19.338;2023-05-27T17:07:58;17.10;69.00
40952;DHT22;26682;51.660;19.338;2023-05-27T17:10:41;17.10;69.00
40952;DHT22;26682;51.660;19.338;2023-05-27T17:13:23;17.00;69.60